Time;durP1;ratioP1;P1;durP2;ratioP2;P2;SDS_P1;SDS_P2;PMS_P1;PMS_P2;Temp;Humidity;BMP_temperature;BMP_pressure;BME280_temperature;BME280_humidity;BME280_pressure;Samples;Min_cycle;Max_cycle;Signal;HPM_P1;HPM_P2
2023/01/07 00:01:43;;;;;;;2.10;2.00;;;;;;;-24.90;75.45;100005.09;4953794;29;20051;-87
2023/01/07 00:04:13;;;;;;;2.03;1.92;;;;;;;-24.86;75.50;100012.72;4938898;28;20664;-87
2023/01/07 00:06:42;;;;;;;2.03;1.92;;;;;;;-24.85;75.39;100011.03;4953550;29;20047;-87
2023/01/07 00:09:12;;;;;;;2.28;2.08;;;;;;;-24.86;75.57;100002.53;4954193;29;20047;-87
2023/01/07 00:11:40;;;;;;;2.00;1.90;;;;;;;-24.83;75.45;100009.31;4957365;29;20059;-87
2023/01/07 00:14:11;;;;;;;2.03;1.92;;;;;;;-24.82;75.63;100021.22;4935633;29;20047;-89
2023/01/07 00:16:39;;;;;;;2.08;1.98;;;;;;;-24.85;75.62;100008.50;4919044;29;20043;-87
2023/01/07 00:19:09;;;;;;;2.00;1.90;;;;;;;-24.84;75.57;100010.19;4938581;29;20055;-87
2023/01/07 00:21:36;;;;;;;2.10;2.00;;;;;;;-24.79;75.65;100018.66;4954053;29;20417;-86
2023/01/07 00:24:06;;;;;;;2.05;1.95;;;;;;;-24.80;75.64;100001.69;4953845;29;20047;-86
2023/01/07 00:26:34;;;;;;;2.38;2.17;;;;;;;-24.78;75.76;100011.03;4937420;29;20059;-87
2023/01/07 00:29:03;;;;;;;2.47;2.28;;;;;;;-24.77;75.92;100016.97;4953693;29;20055;-87
2023/01/07 00:31:32;;;;;;;2.05;1.95;;;;;;;-24.75;75.91;100021.22;4922446;29;20047;-88
2023/01/07 00:36:30;;;;;;;2.38;2.17;;;;;;;-24.75;76.11;100008.47;4936751;29;20512;-87
2023/01/07 00:39:19;;;;;;;2.45;2.25;;;;;;;-24.71;76.15;100011.88;4937272;29;20043;-87
2023/01/07 00:44:33;;;;;;;2.20;2.08;;;;;;;-24.68;76.27;100009.34;4956248;29;20059;-88
2023/01/07 00:47:01;;;;;;;1.90;1.80;;;;;;;-24.69;76.27;100009.31;4956603;29;20078;-86
2023/01/07 00:49:28;;;;;;;2.20;2.10;;;;;;;-24.65;76.43;100011.88;4938042;29;20051;-87
2023/01/07 00:51:55;;;;;;;1.80;1.70;;;;;;;-24.57;76.36;100009.31;4938495;29;20367;-87
2023/01/07 00:54:23;;;;;;;2.05;1.95;;;;;;;-24.53;76.27;100011.00;4938168;29;20077;-87
2023/01/07 00:56:50;;;;;;;2.38;2.20;;;;;;;-24.53;76.04;100006.78;4955644;29;20055;-87
2023/01/07 00:59:17;;;;;;;2.53;2.33;;;;;;;-24.56;75.98;100006.75;4938650;29;20158;-87
2023/01/07 01:01:45;;;;;;;2.03;1.92;;;;;;;-24.45;76.03;100013.53;4954895;29;20053;-87
2023/01/07 01:04:12;;;;;;;1.73;1.63;;;;;;;-24.37;75.90;100011.81;4921748;29;20063;-87
2023/01/07 01:06:39;;;;;;;2.13;2.03;;;;;;;-24.26;75.89;100010.06;4920619;29;20055;-86
2023/01/07 01:09:07;;;;;;;1.90;1.80;;;;;;;-24.16;75.94;100016.84;4953316;29;20055;-85
2023/01/07 01:11:34;;;;;;;2.13;2.03;;;;;;;-24.08;76.06;100019.38;4921068;29;20131;-87
2023/01/07 01:14:01;;;;;;;1.98;1.88;;;;;;;-23.94;75.88;100015.09;4954860;29;20051;-87
2023/01/07 01:16:28;;;;;;;2.03;1.92;;;;;;;-23.98;75.41;100030.41;4954364;29;20090;-87
2023/01/07 01:18:55;;;;;;;2.08;1.98;;;;;;;-23.96;75.41;100028.72;4952320;29;20078;-87
2023/01/07 01:21:23;;;;;;;2.13;2.03;;;;;;;-24.05;74.89;100021.06;4921651;29;20051;-86
2023/01/07 01:23:50;;;;;;;1.90;1.80;;;;;;;-24.15;74.83;100027.91;4954297;29;20155;-86
2023/01/07 01:26:17;;;;;;;2.13;2.03;;;;;;;-24.21;74.91;100030.47;4953647;29;20052;-86
2023/01/07 01:28:45;;;;;;;2.00;1.90;;;;;;;-24.29;74.92;100031.34;4958486;29;20592;-86
2023/01/07 01:31:17;;;;;;;2.08;1.98;;;;;;;-24.44;74.89;100031.38;4936372;29;20087;-87
2023/01/07 01:33:53;;;;;;;2.10;2.00;;;;;;;-24.55;74.99;100041.63;4921188;29;20058;-86
2023/01/07 01:36:20;;;;;;;2.05;1.95;;;;;;;-24.64;74.93;100036.50;4938009;29;20421;-85
2023/01/07 01:38:49;;;;;;;1.95;1.85;;;;;;;-24.68;74.92;100042.50;4946003;29;20082;-85
2023/01/07 01:41:16;;;;;;;2.40;2.20;;;;;;;-24.74;74.86;100024.63;4945070;29;20051;-86
2023/01/07 01:43:45;;;;;;;2.22;2.10;;;;;;;-24.76;74.96;100037.38;4936735;29;20066;-86
2023/01/07 01:46:18;;;;;;;2.03;1.92;;;;;;;-24.73;74.87;100049.28;4945156;29;20054;-86
2023/01/07 01:48:49;;;;;;;2.40;2.20;;;;;;;-24.66;74.89;100050.97;4961705;29;20082;-86
2023/01/07 01:51:18;;;;;;;1.80;1.70;;;;;;;-24.59;74.86;100046.72;4941291;29;20047;-86
2023/01/07 01:53:45;;;;;;;2.00;1.90;;;;;;;-24.52;74.66;100056.91;4938422;29;20051;-88
2023/01/07 01:56:17;;;;;;;2.15;2.05;;;;;;;-24.44;74.67;100059.44;4952891;29;20055;-86
2023/01/07 01:58:51;;;;;;;2.45;2.25;;;;;;;-24.44;74.47;100058.63;4922466;29;20059;-87
2023/01/07 02:01:19;;;;;;;2.17;2.08;;;;;;;-24.55;74.23;100056.09;4941952;29;20498;-85
2023/01/07 02:03:47;;;;;;;2.03;1.92;;;;;;;-24.62;74.29;100065.41;4944002;29;20051;-86
2023/01/07 02:06:24;;;;;;;1.98;1.88;;;;;;;-24.69;74.32;100084.13;4913001;29;20877;-85
2023/01/07 02:08:52;;;;;;;2.13;2.03;;;;;;;-24.72;74.67;100081.56;4957291;29;20047;-86
2023/01/07 02:11:32;;;;;;;2.00;1.90;;;;;;;-24.68;74.74;100084.97;4941528;29;20070;-86
2023/01/07 02:14:07;;;;;;;2.25;2.10;;;;;;;-24.69;74.57;100090.91;4940376;29;20057;-85
2023/01/07 02:17:01;;;;;;;2.00;1.90;;;;;;;-24.76;74.72;100080.72;4939067;29;20057;-85
2023/01/07 02:20:05;;;;;;;2.30;2.13;;;;;;;-24.82;74.88;100097.72;4954589;28;20066;-85
2023/01/07 02:22:57;;;;;;;1.92;1.83;;;;;;;-24.84;75.01;100096.84;4939069;29;20051;-86
2023/01/07 02:25:49;;;;;;;2.33;2.13;;;;;;;-24.88;75.12;100095.13;4955630;29;20062;-86
2023/01/07 02:28:34;;;;;;;2.03;1.92;;;;;;;-24.85;75.37;100092.63;4955476;29;20051;-86
2023/01/07 02:31:26;;;;;;;2.10;2.00;;;;;;;-24.82;75.54;100090.06;4938810;29;20576;-86
2023/01/07 02:34:07;;;;;;;2.00;1.90;;;;;;;-24.87;75.41;100087.50;4923464;29;20051;-86
2023/01/07 02:36:35;;;;;;;1.90;1.80;;;;;;;-24.75;75.71;100101.97;4939982;29;20146;-86
2023/01/07 02:39:23;;;;;;;2.25;2.10;;;;;;;-24.69;75.66;100101.97;4954747;29;20051;-87
2023/01/07 02:41:53;;;;;;;1.90;1.80;;;;;;;-24.57;75.64;100101.97;4955736;29;20085;-85
2023/01/07 02:44:37;;;;;;;2.40;2.20;;;;;;;-24.57;75.49;100112.19;4937643;29;20096;-85
2023/01/07 02:47:27;;;;;;;2.10;2.00;;;;;;;-24.64;75.31;100120.66;4955115;29;20574;-85
2023/01/07 02:49:57;;;;;;;2.00;1.90;;;;;;;-24.70;75.13;100124.94;4921952;29;20110;-85
2023/01/07 02:52:31;;;;;;;2.13;2.03;;;;;;;-24.79;75.10;100120.66;4937977;29;20494;-86
2023/01/07 02:55:09;;;;;;;2.17;2.05;;;;;;;-24.82;75.31;100128.28;4927775;29;20082;-85
2023/01/07 02:58:08;;;;;;;2.10;2.00;;;;;;;-24.88;75.44;100134.25;4955211;29;20114;-86
2023/01/07 03:00:50;;;;;;;2.10;2.00;;;;;;;-24.91;75.53;100135.91;4938796;29;20070;-87
2023/01/07 03:03:36;;;;;;;2.28;2.13;;;;;;;-24.94;75.75;100139.31;4956851;28;20053;-86
2023/01/07 03:06:32;;;;;;;1.90;1.80;;;;;;;-24.93;75.52;100140.16;4938775;29;20544;-85
2023/01/07 03:08:59;;;;;;;2.25;2.13;;;;;;;-24.95;75.44;100140.16;4921177;29;20134;-86
2023/01/07 03:11:33;;;;;;;2.13;2.03;;;;;;;-25.01;75.54;100145.22;4938103;28;20047;-86
2023/01/07 03:14:29;;;;;;;2.03;1.92;;;;;;;-25.02;75.56;100141.84;4921003;29;20414;-84
2023/01/07 03:17:01;;;;;;;2.25;2.10;;;;;;;-25.04;75.51;100135.88;4895045;29;20144;-85
2023/01/07 03:19:31;;;;;;;2.22;2.10;;;;;;;-25.09;75.40;100141.81;4894980;29;20127;-85
2023/01/07 03:22:00;;;;;;;1.80;1.70;;;;;;;-25.17;75.31;100137.56;4879404;29;20237;-84
2023/01/07 03:24:30;;;;;;;2.50;2.30;;;;;;;-25.14;75.42;100157.09;4879275;29;20542;-86
2023/01/07 03:26:59;;;;;;;2.00;1.90;;;;;;;-25.09;75.54;100157.94;4879608;29;20048;-84
2023/01/07 03:29:27;;;;;;;2.10;2.00;;;;;;;-25.10;75.30;100155.41;4895197;29;20053;-84
2023/01/07 03:32:08;;;;;;;1.98;1.88;;;;;;;-25.12;75.33;100157.94;4894830;29;20053;-83
2023/01/07 03:34:36;;;;;;;1.90;1.80;;;;;;;-25.20;75.40;100154.56;4894579;29;20056;-83
2023/01/07 03:37:10;;;;;;;1.80;1.70;;;;;;;-25.19;75.55;100159.66;4894497;29;20079;-84
2023/01/07 03:39:39;;;;;;;2.05;1.95;;;;;;;-25.17;75.62;100162.22;4879061;29;20199;-84
2023/01/07 03:44:54;;;;;;;2.28;2.15;;;;;;;-25.12;75.42;100154.56;4894479;29;20052;-84
2023/01/07 03:47:25;;;;;;;2.00;1.90;;;;;;;-25.17;75.48;100145.22;4880027;29;20591;-84
2023/01/07 03:49:51;;;;;;;2.10;2.00;;;;;;;-25.12;75.45;100159.66;4895438;29;20095;-85
2023/01/07 03:52:19;;;;;;;2.08;1.98;;;;;;;-25.20;75.39;100145.22;4894370;29;20071;-84
2023/01/07 03:54:46;;;;;;;2.05;1.95;;;;;;;-25.24;75.29;100152.84;4913415;29;20090;-84
2023/01/07 03:57:14;;;;;;;2.20;2.10;;;;;;;-25.30;75.53;100153.66;4917287;29;20048;-85
2023/01/07 03:59:41;;;;;;;2.53;2.33;;;;;;;-25.29;75.47;100160.44;4901653;29;20076;-84
2023/01/07 04:02:09;;;;;;;2.00;1.90;;;;;;;-25.30;75.65;100163.00;4917225;29;20127;-85
2023/01/07 04:04:36;;;;;;;2.00;1.90;;;;;;;-25.20;76.07;100180.03;4937421;29;20107;-84
2023/01/07 04:07:03;;;;;;;2.20;2.08;;;;;;;-25.23;75.97;100172.38;4926629;29;20051;-85
2023/01/07 04:09:30;;;;;;;2.35;2.15;;;;;;;-25.16;76.01;100181.75;4925927;29;20193;-84
2023/01/07 04:11:57;;;;;;;2.22;2.10;;;;;;;-25.11;75.97;100182.59;4928285;29;20420;-84
2023/01/07 04:14:24;;;;;;;2.00;1.90;;;;;;;-25.10;75.99;100180.91;4928171;29;20071;-84
2023/01/07 04:16:51;;;;;;;1.90;1.80;;;;;;;-25.15;75.93;100185.97;4958132;29;20143;-85
2023/01/07 04:19:19;;;;;;;1.92;1.83;;;;;;;-25.15;76.14;100183.41;4920638;29;20407;-87
2023/01/07 04:21:46;;;;;;;2.13;2.03;;;;;;;-25.14;76.09;100185.09;4936583;29;20737;-86
2023/01/07 04:24:13;;;;;;;2.25;2.08;;;;;;;-25.09;76.20;100187.69;4935532;29;20065;-84
2023/01/07 04:26:41;;;;;;;2.47;2.28;;;;;;;-25.08;76.00;100192.78;4936981;29;20055;-83
2023/01/07 04:29:10;;;;;;;2.05;1.95;;;;;;;-25.12;75.77;100187.69;4936424;29;20078;-85
2023/01/07 04:31:37;;;;;;;2.10;2.00;;;;;;;-25.13;75.94;100189.38;4936473;29;20094;-85
2023/01/07 04:34:04;;;;;;;2.42;2.22;;;;;;;-25.15;75.74;100191.06;4936171;29;20418;-87
2023/01/07 04:36:32;;;;;;;1.90;1.80;;;;;;;-25.11;75.71;100180.06;4953616;29;20109;-87
2023/01/07 04:39:00;;;;;;;2.40;2.20;;;;;;;-25.11;75.71;100177.50;4936544;29;20074;-88
2023/01/07 04:41:27;;;;;;;2.38;2.20;;;;;;;-25.12;75.55;100182.59;4953581;29;20074;-86
2023/01/07 04:43:55;;;;;;;2.10;2.00;;;;;;;-25.18;75.69;100188.53;4936548;29;20055;-86
2023/01/07 04:46:24;;;;;;;2.10;2.00;;;;;;;-25.15;75.86;100197.91;4952981;29;20600;-87
2023/01/07 04:48:51;;;;;;;1.90;1.80;;;;;;;-25.08;75.73;100194.50;4936464;29;20055;-86
2023/01/07 04:51:19;;;;;;;1.92;1.83;;;;;;;-25.06;75.38;100202.97;4922748;29;20132;-86
2023/01/07 04:53:47;;;;;;;1.90;1.80;;;;;;;-25.10;75.38;100197.03;4936675;29;20473;-86
2023/01/07 04:56:14;;;;;;;2.13;2.03;;;;;;;-25.12;75.42;100198.72;4936070;29;20110;-86
2023/01/07 04:58:42;;;;;;;1.90;1.80;;;;;;;-25.12;75.43;100208.06;4935781;29;20078;-85
2023/01/07 05:01:10;;;;;;;2.00;1.90;;;;;;;-25.17;75.36;100208.91;4935929;29;20453;-86
2023/01/07 05:03:38;;;;;;;2.40;2.20;;;;;;;-25.17;75.39;100219.09;4921471;29;20062;-85
2023/01/07 05:06:05;;;;;;;1.95;1.85;;;;;;;-25.14;75.55;100209.75;4936550;29;20075;-86
2023/01/07 05:08:32;;;;;;;2.00;1.90;;;;;;;-25.14;75.58;100215.69;4935825;29;20059;-86
2023/01/07 05:11:00;;;;;;;1.90;1.80;;;;;;;-25.11;75.50;100225.03;4935226;29;20054;-85
2023/01/07 05:13:30;;;;;;;2.10;2.00;;;;;;;-25.18;75.41;100224.22;4934972;29;20051;-86
2023/01/07 05:15:59;;;;;;;2.03;1.92;;;;;;;-25.20;75.74;100226.75;4935247;29;20426;-85
2023/01/07 05:18:27;;;;;;;2.17;2.08;;;;;;;-25.21;75.81;100232.69;4934852;29;20098;-85
2023/01/07 05:20:54;;;;;;;1.95;1.85;;;;;;;-25.21;75.80;100234.41;4952642;29;20147;-85
2023/01/07 05:23:21;;;;;;;2.35;2.17;;;;;;;-25.21;75.77;100235.25;4934776;29;20394;-86
2023/01/07 05:25:49;;;;;;;2.00;1.90;;;;;;;-25.17;75.83;100234.38;4919763;29;20051;-85
2023/01/07 05:28:17;;;;;;;2.10;2.00;;;;;;;-25.14;76.00;100236.06;4936049;29;20525;-88
2023/01/07 05:30:45;;;;;;;2.13;2.03;;;;;;;-25.14;75.91;100236.06;4919646;29;20130;-86
2023/01/07 05:33:13;;;;;;;2.17;2.08;;;;;;;-25.20;75.87;100239.47;4936322;29;20158;-86
2023/01/07 05:35:40;;;;;;;2.35;2.15;;;;;;;-25.17;76.18;100246.28;4937953;29;20058;-86
2023/01/07 05:38:08;;;;;;;2.10;2.00;;;;;;;-25.13;76.24;100250.53;4939393;29;20510;-84
2023/01/07 05:40:35;;;;;;;1.98;1.88;;;;;;;-25.12;76.15;100253.94;4923689;29;20051;-86
2023/01/07 05:43:03;;;;;;;2.10;2.00;;;;;;;-25.13;76.07;100255.63;4956276;29;20066;-85
2023/01/07 05:45:31;;;;;;;1.80;1.70;;;;;;;-25.13;76.16;100259.88;4939484;29;20066;-88
2023/01/07 05:47:58;;;;;;;2.05;1.95;;;;;;;-25.12;76.23;100270.06;4954864;29;20062;-87
2023/01/07 05:50:26;;;;;;;2.03;1.92;;;;;;;-25.22;76.02;100255.59;4961101;28;20102;-88
2023/01/07 05:52:53;;;;;;;2.08;1.98;;;;;;;-25.25;76.10;100266.63;4962718;28;20053;-89
2023/01/07 05:55:30;;;;;;;2.13;2.03;;;;;;;-25.25;76.02;100268.31;4943260;29;20056;-88
2023/01/07 05:58:13;;;;;;;2.05;1.95;;;;;;;-25.30;75.86;100272.53;4911114;29;20078;-89
2023/01/07 06:00:40;;;;;;;2.28;2.13;;;;;;;-25.35;75.96;100271.66;4923607;29;20107;-89
2023/01/07 06:03:07;;;;;;;2.42;2.22;;;;;;;-25.26;75.87;100284.44;4944703;29;20040;-86
2023/01/07 06:05:35;;;;;;;2.42;2.22;;;;;;;-25.28;75.67;100283.59;4920668;29;20058;-86
2023/01/07 06:08:02;;;;;;;1.88;1.77;;;;;;;-25.36;75.79;100285.22;4602037;28;10000033;-84
2023/01/07 06:10:29;;;;;;;2.10;2.00;;;;;;;-25.38;75.62;100286.94;4908140;29;20052;-86
2023/01/07 06:12:57;;;;;;;2.28;2.10;;;;;;;-25.35;75.64;100292.03;4953038;29;20059;-86
2023/01/07 06:15:24;;;;;;;2.30;2.10;;;;;;;-25.38;75.74;100292.03;4953238;29;20194;-84
2023/01/07 06:17:51;;;;;;;2.30;2.10;;;;;;;-25.33;75.77;100298.84;4953420;29;20150;-85
2023/01/07 06:20:20;;;;;;;2.10;2.00;;;;;;;-25.37;75.75;100276.75;4947470;28;20146;-87
2023/01/07 06:22:47;;;;;;;2.22;2.10;;;;;;;-25.34;75.62;100286.09;4936737;29;20051;-86
2023/01/07 06:25:17;;;;;;;2.45;2.25;;;;;;;-25.24;75.43;100311.66;4953094;29;20065;-86
2023/01/07 06:27:44;;;;;;;2.50;2.30;;;;;;;-25.34;75.35;100298.81;4961049;28;20134;-83
2023/01/07 06:30:12;;;;;;;2.00;1.90;;;;;;;-25.29;75.16;100317.53;4945400;28;20622;-83
2023/01/07 06:32:41;;;;;;;2.40;2.20;;;;;;;-25.29;75.20;100312.44;4943904;28;20058;-83
2023/01/07 06:35:10;;;;;;;2.17;2.08;;;;;;;-25.19;75.24;100326.94;4953038;28;20100;-84
2023/01/07 06:37:39;;;;;;;2.10;2.00;;;;;;;-25.30;75.54;100311.59;4919102;28;20429;-84
2023/01/07 06:40:08;;;;;;;2.00;1.90;;;;;;;-25.24;75.44;100326.06;4944079;28;20114;-86
2023/01/07 06:42:35;;;;;;;2.00;1.90;;;;;;;-25.15;75.33;100336.28;4930583;28;20055;-87
2023/01/07 06:45:03;;;;;;;2.25;2.08;;;;;;;-25.14;75.51;100335.44;4931885;28;20051;-85
2023/01/07 06:47:33;;;;;;;2.15;2.05;;;;;;;-25.21;75.05;100323.56;4939176;28;20677;-85
2023/01/07 06:50:01;;;;;;;2.50;2.30;;;;;;;-25.02;75.01;100347.41;4945697;28;20130;-84
2023/01/07 06:52:29;;;;;;;2.30;2.10;;;;;;;-25.08;74.81;100340.59;4958816;28;20133;-84
2023/01/07 06:54:56;;;;;;;2.33;2.13;;;;;;;-25.03;74.80;100348.28;4957782;28;20055;-85
2023/01/07 06:57:23;;;;;;;2.40;2.20;;;;;;;-25.10;74.75;100337.19;4926798;29;20119;-84
2023/01/07 06:59:51;;;;;;;2.33;2.13;;;;;;;-25.04;74.68;100355.03;4933020;29;20058;-84
2023/01/07 07:02:26;;;;;;;2.30;2.10;;;;;;;-25.15;74.63;100323.56;4947789;28;20209;-89
2023/01/07 07:04:54;;;;;;;2.60;2.40;;;;;;;-24.92;74.72;100361.06;4932283;29;20074;-85
2023/01/07 07:07:24;;;;;;;2.20;2.00;;;;;;;-24.78;74.66;100365.41;4942742;29;20055;-85
2023/01/07 07:09:56;;;;;;;2.30;2.10;;;;;;;-24.71;74.68;100373.94;4908482;29;20051;-86
2023/01/07 07:12:29;;;;;;;2.40;2.20;;;;;;;-24.56;74.18;100363.81;4917862;29;20474;-84
2023/01/07 07:14:59;;;;;;;2.15;1.95;;;;;;;-24.43;74.44;100359.56;4924298;29;20051;-88
2023/01/07 07:17:26;;;;;;;2.00;1.90;;;;;;;-24.14;74.55;100358.84;4918416;28;20079;-85
2023/01/07 07:19:55;;;;;;;2.45;2.25;;;;;;;-23.93;74.18;100364.00;4967735;28;20042;-85
2023/01/07 07:22:25;;;;;;;2.22;2.10;;;;;;;-23.76;73.78;100371.69;4954514;28;20141;-83
2023/01/07 07:24:52;;;;;;;2.40;2.20;;;;;;;-23.78;73.40;100365.72;4947210;28;20149;-86
2023/01/07 07:27:19;;;;;;;2.38;2.17;;;;;;;-23.49;73.22;100380.19;4950796;28;20208;-86
2023/01/07 07:29:46;;;;;;;2.05;1.95;;;;;;;-23.32;73.26;100382.78;4965599;28;20047;-87
2023/01/07 07:32:14;;;;;;;2.03;1.92;;;;;;;-23.17;72.90;100381.94;4948253;28;20050;-86
2023/01/07 07:34:41;;;;;;;2.05;1.95;;;;;;;-23.06;72.43;100383.63;4922796;29;20047;-85
2023/01/07 07:37:09;;;;;;;2.10;2.00;;;;;;;-22.95;72.08;100393.81;4945420;29;20066;-86
2023/01/07 07:39:36;;;;;;;2.10;2.00;;;;;;;-22.87;71.68;100393.81;4932312;28;20061;-87
2023/01/07 07:42:06;;;;;;;2.10;2.00;;;;;;;-22.51;70.89;100397.97;4941632;28;20047;-84
2023/01/07 07:44:35;;;;;;;1.90;1.80;;;;;;;-22.18;70.55;100406.38;4947419;28;20148;-87
2023/01/07 07:47:02;;;;;;;2.00;1.90;;;;;;;-21.93;69.77;100397.72;4960774;28;20473;-86
2023/01/07 07:49:30;;;;;;;2.13;2.03;;;;;;;-21.74;68.98;100407.91;4948317;29;20051;-87
2023/01/07 07:51:57;;;;;;;1.90;1.80;;;;;;;-21.71;68.91;100403.59;4939285;29;20148;-84
2023/01/07 07:54:24;;;;;;;2.15;2.05;;;;;;;-21.31;68.35;100408.44;4900080;29;20062;-84
2023/01/07 07:56:51;;;;;;;2.10;2.00;;;;;;;-21.10;67.91;100427.94;4927126;29;20672;-85
2023/01/07 07:59:19;;;;;;;2.17;2.05;;;;;;;-20.70;67.57;100430.19;4929054;29;20462;-84
2023/01/07 08:01:46;;;;;;;2.00;1.90;;;;;;;-20.33;67.11;100429.78;4946398;28;20051;-84
2023/01/07 08:04:13;;;;;;;1.88;1.77;;;;;;;-20.12;66.01;100429.53;4954156;28;20056;-84
2023/01/07 08:06:44;;;;;;;2.00;1.90;;;;;;;-20.08;65.61;100432.06;4951587;28;20063;-87
2023/01/07 08:09:19;;;;;;;1.80;1.70;;;;;;;-20.31;64.85;100429.75;4943175;28;20069;-82
2023/01/07 08:11:47;;;;;;;1.90;1.80;;;;;;;-20.33;65.18;100417.81;4950116;29;20098;-85
2023/01/07 08:14:15;;;;;;;1.92;1.83;;;;;;;-19.81;64.73;100426.59;4956124;29;20058;-91
2023/01/07 08:16:55;;;;;;;1.90;1.80;;;;;;;-19.32;63.81;100410.47;4919021;29;20055;-87
2023/01/07 08:19:25;;;;;;;1.80;1.70;;;;;;;-19.11;63.27;100418.72;4949155;29;20056;-85
2023/01/07 08:21:54;;;;;;;1.98;1.88;;;;;;;-18.90;62.48;100417.56;4928882;29;20085;-88
2023/01/07 08:24:21;;;;;;;1.83;1.73;;;;;;;-18.74;62.33;100431.81;4951818;29;20106;-85
2023/01/07 08:26:49;;;;;;;1.88;1.77;;;;;;;-18.82;61.14;100426.84;4926964;29;20640;-89
2023/01/07 08:29:30;;;;;;;1.90;1.80;;;;;;;-18.69;60.81;100429.19;4946195;28;20062;-87
2023/01/07 08:32:00;;;;;;;1.90;1.80;;;;;;;-18.62;60.21;100402.44;4968349;28;20690;-88
2023/01/07 08:34:33;;;;;;;1.80;1.70;;;;;;;-18.31;59.62;100417.34;4940789;28;20058;-86
2023/01/07 08:37:02;;;;;;;1.80;1.70;;;;;;;-18.33;58.92;100414.78;4929166;29;20052;-89
2023/01/07 08:39:29;;;;;;;1.80;1.70;;;;;;;-18.54;58.07;100403.16;4918185;29;20458;-87
2023/01/07 08:41:56;;;;;;;1.90;1.80;;;;;;;-18.49;57.69;100409.06;4927210;29;20059;-85
2023/01/07 08:44:23;;;;;;;1.60;1.50;;;;;;;-18.61;56.65;100411.88;4950442;28;20078;-87
2023/01/07 08:46:52;;;;;;;1.95;1.85;;;;;;;-18.78;57.12;100421.63;4935122;28;20399;-91
2023/01/07 08:49:19;;;;;;;1.60;1.50;;;;;;;-18.25;57.54;100422.38;4932146;29;20109;-84
2023/01/07 08:51:46;;;;;;;2.08;1.98;;;;;;;-17.70;57.75;100403.19;4951447;28;20152;-88
2023/01/07 08:54:17;;;;;;;1.80;1.70;;;;;;;-16.80;57.28;100414.94;4939566;28;20142;-87
2023/01/07 08:56:44;;;;;;;1.55;1.45;;;;;;;-16.62;57.21;100410.09;4932355;28;20059;-86
2023/01/07 08:59:11;;;;;;;1.70;1.60;;;;;;;-16.71;56.61;100404.31;4907930;29;20471;-85
2023/01/07 09:01:38;;;;;;;1.83;1.73;;;;;;;-16.63;56.46;100412.75;4950210;29;20127;-85
2023/01/07 09:04:07;;;;;;;1.60;1.50;;;;;;;-16.60;55.51;100417.81;4929461;28;20062;-87
2023/01/07 09:06:59;;;;;;;1.70;1.60;;;;;;;-16.25;55.23;100424.66;4962984;28;20196;-86
2023/01/07 09:09:26;;;;;;;1.73;1.63;;;;;;;-15.90;54.69;100428.00;4959740;28;20035;-87
2023/01/07 09:12:07;;;;;;;1.70;1.60;;;;;;;-16.19;54.02;100426.22;4944077;28;20122;-91
2023/01/07 09:14:37;;;;;;;1.70;1.60;;;;;;;-16.08;54.37;100425.94;4942226;29;20098;-88
2023/01/07 09:17:31;;;;;;;1.70;1.60;;;;;;;-15.68;54.40;100428.22;4968514;28;20079;-90
2023/01/07 09:20:12;;;;;;;2.00;1.90;;;;;;;-15.79;53.87;100438.91;4944411;24;20163;-89
2023/01/07 09:22:42;;;;;;;2.00;1.90;;;;;;;-16.55;54.09;100428.06;4917854;29;20051;-88
2023/01/07 09:25:12;;;;;;;1.60;1.50;;;;;;;-16.33;54.02;100430.91;4961062;28;20057;-89
2023/01/07 09:27:41;;;;;;;1.63;1.52;;;;;;;-15.98;53.92;100433.38;4981065;28;20505;-88
2023/01/07 09:30:12;;;;;;;1.70;1.60;;;;;;;-15.42;53.73;100436.97;4981070;28;20061;-89
2023/01/07 09:32:42;;;;;;;2.25;2.10;;;;;;;-15.05;53.10;100434.09;4958761;28;20058;-87
2023/01/07 09:35:10;;;;;;;1.88;1.77;;;;;;;-14.73;52.62;100434.84;4946133;28;20054;-84
2023/01/07 09:37:37;;;;;;;1.90;1.80;;;;;;;-14.93;52.08;100441.50;4961282;28;20051;-84
2023/01/07 09:40:05;;;;;;;2.05;1.95;;;;;;;-14.75;51.76;100436.63;4957620;28;20051;-82
2023/01/07 09:43:06;;;;;;;2.05;1.95;;;;;;;-14.85;51.47;100438.66;4935844;29;20052;-84
2023/01/07 09:45:52;;;;;;;1.95;1.85;;;;;;;-15.08;50.94;100436.81;4920209;29;20486;-86
2023/01/07 09:48:34;;;;;;;2.10;2.00;;;;;;;-14.55;51.42;100433.38;4941688;28;20051;-85
2023/01/07 09:51:03;;;;;;;;;;;;;;;-14.07;51.25;100433.41;4932891;29;20581;-85
2023/01/07 09:53:37;;;;;;;2.15;2.05;;;;;;;-13.71;50.63;100435.59;4944361;28;20717;-86
2023/01/07 09:56:05;;;;;;;;;;;;;;;-13.41;50.16;100437.97;4965868;28;20050;-90
2023/01/07 09:58:44;;;;;;;2.30;2.13;;;;;;;-13.76;49.36;100440.94;4950436;28;19942;-86
2023/01/07 10:01:39;;;;;;;2.40;2.20;;;;;;;-13.43;48.97;100429.38;4956624;28;20540;-85
2023/01/07 10:04:39;;;;;;;2.10;2.00;;;;;;;-13.64;48.31;100436.22;4947233;29;20119;-89
2023/01/07 10:07:31;;;;;;;2.00;1.90;;;;;;;-13.27;48.39;100438.28;4932825;29;20055;-86
2023/01/07 10:10:19;;;;;;;1.83;1.73;;;;;;;-12.99;48.70;100437.19;4948863;29;20055;-85
2023/01/07 10:13:21;;;;;;;2.25;2.05;;;;;;;-12.48;47.78;100441.19;4886226;29;20121;-83
2023/01/07 10:15:58;;;;;;;1.90;1.80;;;;;;;-12.80;46.94;100438.16;4925993;28;20051;-84
2023/01/07 10:18:35;;;;;;;2.20;2.05;;;;;;;-13.14;47.35;100436.88;4934126;29;20145;-83
2023/01/07 10:21:10;;;;;;;1.90;1.80;;;;;;;-13.62;46.46;100445.66;4950100;28;20091;-86
2023/01/07 10:23:43;;;;;;;1.92;1.83;;;;;;;-13.38;47.14;100437.84;4945218;28;20138;-87
2023/01/07 10:26:47;;;;;;;2.25;2.08;;;;;;;-12.98;46.59;100438.88;4952462;28;20055;-85
2023/01/07 10:30:00;;;;;;;2.13;2.00;;;;;;;-12.88;46.77;100448.00;4867872;29;20217;-83
2023/01/07 10:32:32;;;;;;;2.45;2.25;;;;;;;-12.98;46.34;100437.13;4856794;29;20049;-86
2023/01/07 10:35:03;;;;;;;1.80;1.70;;;;;;;-12.83;46.67;100451.28;4906883;29;20053;-82
2023/01/07 10:37:33;;;;;;;1.90;1.80;;;;;;;-12.34;46.32;100451.88;4891985;29;20638;-84
2023/01/07 10:40:03;;;;;;;2.10;2.00;;;;;;;-12.22;46.25;100458.31;4881113;29;20638;-83
2023/01/07 10:42:55;;;;;;;2.25;2.05;;;;;;;-12.54;45.93;100467.44;4896703;29;20578;-83
2023/01/07 10:45:23;;;;;;;1.80;1.70;;;;;;;-12.60;45.64;100468.56;4865879;29;20057;-83
2023/01/07 10:48:09;;;;;;;2.30;2.10;;;;;;;-12.66;45.23;100474.84;4895913;29;20055;-83
2023/01/07 10:50:55;;;;;;;1.95;1.85;;;;;;;-12.12;45.68;100474.41;4879709;29;20101;-83
2023/01/07 10:53:42;;;;;;;2.58;2.38;;;;;;;-11.46;45.55;100474.94;4882557;29;20045;-83
2023/01/07 10:56:36;;;;;;;2.25;2.05;;;;;;;-11.30;44.87;100476.88;4898767;29;20528;-83
2023/01/07 10:59:04;;;;;;;2.60;2.40;;;;;;;-11.17;44.96;100477.97;4884997;29;20052;-82
2023/01/07 11:01:36;;;;;;;2.25;2.05;;;;;;;-10.64;44.93;100479.00;4915022;29;20091;-84
2023/01/07 11:04:14;;;;;;;2.38;2.17;;;;;;;-10.93;44.32;100479.47;4934293;29;20464;-83
2023/01/07 11:06:48;;;;;;;2.50;2.30;;;;;;;-11.04;44.77;100484.31;4937296;29;20074;-83
2023/01/07 11:09:34;;;;;;;2.50;2.30;;;;;;;-11.01;44.65;100471.16;4954119;29;20078;-86
2023/01/07 11:12:24;;;;;;;2.47;2.28;;;;;;;-10.79;44.19;100470.13;4938212;29;20051;-83
2023/01/07 11:14:52;;;;;;;2.20;2.00;;;;;;;-11.75;43.47;100473.63;4941215;29;20051;-86
2023/01/07 11:17:25;;;;;;;2.05;1.95;;;;;;;-12.41;44.72;100484.25;4937375;29;20062;-84
2023/01/07 11:19:53;;;;;;;1.90;1.80;;;;;;;-12.69;44.80;100476.72;4940612;29;20063;-84
2023/01/07 11:22:26;;;;;;;2.45;2.25;;;;;;;-12.90;44.61;100481.84;4955225;29;20047;-84
2023/01/07 11:24:53;;;;;;;2.00;1.90;;;;;;;-12.87;45.08;100475.69;4940997;28;20047;-86
2023/01/07 11:27:23;;;;;;;2.40;2.20;;;;;;;-12.74;44.97;100484.69;4965077;28;20604;-86
2023/01/07 11:30:19;;;;;;;1.92;1.83;;;;;;;-12.89;45.06;100472.31;4961380;28;20665;-86
2023/01/07 11:33:04;;;;;;;2.47;2.28;;;;;;;-13.04;45.33;100483.28;4931913;28;20417;-85
2023/01/07 11:35:32;;;;;;;2.22;2.05;;;;;;;-12.96;45.17;100478.63;4945107;28;20992;-84
2023/01/07 11:37:59;;;;;;;2.30;2.10;;;;;;;-12.95;45.14;100477.75;4929675;29;20415;-85
2023/01/07 11:40:28;;;;;;;2.00;1.90;;;;;;;-13.15;44.74;100488.91;4948802;28;20051;-85
2023/01/07 11:43:00;;;;;;;1.80;1.70;;;;;;;-13.33;45.28;100493.06;4958726;28;20118;-85
2023/01/07 11:45:29;;;;;;;2.00;1.90;;;;;;;-13.59;45.17;100497.47;4963354;28;20051;-84
2023/01/07 11:48:02;;;;;;;2.10;2.00;;;;;;;-13.89;45.86;100506.34;4946147;28;20670;-86